createdAt,value
2018-04-24T00:01:04.001Z,99.90
2018-04-24T00:03:31.537Z,99.90
2018-04-24T00:05:59.059Z,99.90
2018-04-24T00:08:26.551Z,99.90
2018-04-24T00:10:54.050Z,99.90
2018-04-24T00:13:21.562Z,99.90
2018-04-24T00:15:49.061Z,99.90
2018-04-24T00:18:17.387Z,99.90
2018-04-24T00:20:44.837Z,99.90
2018-04-24T00:23:12.343Z,99.90
2018-04-24T00:25:39.871Z,99.90
2018-04-24T00:28:07.377Z,99.90
2018-04-24T00:30:35.649Z,99.90
2018-04-24T00:33:03.925Z,99.90
2018-04-24T00:35:32.216Z,99.90
2018-04-24T00:38:00.511Z,99.90
2018-04-24T00:40:28.017Z,99.90
2018-04-24T00:42:55.533Z,99.90
2018-04-24T00:45:23.055Z,99.90
2018-04-24T00:47:50.554Z,99.90
2018-04-24T00:50:18.107Z,99.90
2018-04-24T00:52:45.594Z,99.90
2018-04-24T00:55:13.098Z,99.90
2018-04-24T00:57:40.610Z,99.90
2018-04-24T01:00:08.105Z,99.90
2018-04-24T01:02:35.621Z,99.90
2018-04-24T01:05:03.121Z,99.90
2018-04-24T01:07:30.642Z,99.90
2018-04-24T01:09:58.137Z,99.90
2018-04-24T01:12:25.643Z,99.90
2018-04-24T01:14:53.156Z,99.90
2018-04-24T01:17:20.663Z,99.90
2018-04-24T01:19:49.465Z,99.90
2018-04-24T01:22:16.955Z,99.90
2018-04-24T01:24:44.449Z,99.90
2018-04-24T01:27:12.739Z,99.90
2018-04-24T01:29:40.245Z,99.90
2018-04-24T01:32:08.051Z,99.90
2018-04-24T01:34:36.326Z,99.90
2018-04-24T01:37:04.643Z,99.90
2018-04-24T01:39:32.161Z,99.90
2018-04-24T01:42:00.422Z,99.90
2018-04-24T01:44:27.943Z,99.90
2018-04-24T01:46:55.447Z,99.90
2018-04-24T01:49:22.966Z,99.90
2018-04-24T01:51:50.461Z,99.90
2018-04-24T01:54:17.977Z,99.90
2018-04-24T01:56:45.485Z,99.90
2018-04-24T01:59:13.750Z,99.90
2018-04-24T02:01:41.272Z,99.90
2018-04-24T02:04:08.770Z,99.90
2018-04-24T02:06:36.288Z,99.90
2018-04-24T02:09:04.839Z,99.90
2018-04-24T02:11:33.102Z,99.90
2018-04-24T02:14:00.627Z,99.90
2018-04-24T02:16:28.127Z,99.90
2018-04-24T02:18:55.649Z,99.90
2018-04-24T02:21:23.153Z,99.90
2018-04-24T02:23:50.658Z,99.90
2018-04-24T02:26:18.182Z,99.90
2018-04-24T02:28:45.690Z,99.90
2018-04-24T02:31:13.222Z,99.90
2018-04-24T02:33:40.726Z,99.90
2018-04-24T02:36:08.255Z,99.90
2018-04-24T02:38:35.982Z,99.90
2018-04-24T02:41:03.496Z,99.90
2018-04-24T02:43:31.021Z,99.90
2018-04-24T02:45:58.565Z,99.90
2018-04-24T02:48:26.894Z,99.90
2018-04-24T02:50:54.419Z,99.90
2018-04-24T02:53:21.934Z,99.90
2018-04-24T02:55:49.433Z,99.90
2018-04-24T02:58:16.950Z,99.90
2018-04-24T03:00:44.447Z,99.90
2018-04-24T03:03:11.949Z,99.90
2018-04-24T03:05:39.467Z,99.90
2018-04-24T03:08:06.987Z,99.90
2018-04-24T03:10:34.498Z,99.90
2018-04-24T03:13:02.024Z,99.90
2018-04-24T03:15:30.322Z,99.90
2018-04-24T03:17:57.834Z,99.90
2018-04-24T03:20:25.338Z,99.90
2018-04-24T03:22:52.859Z,99.90
2018-04-24T03:25:20.363Z,99.90
2018-04-24T03:27:47.894Z,99.90
2018-04-24T03:30:16.157Z,99.90
2018-04-24T03:32:43.682Z,99.90
2018-04-24T03:35:11.178Z,99.90
2018-04-24T03:37:38.674Z,99.90
2018-04-24T03:40:06.183Z,99.90
2018-04-24T03:42:33.678Z,99.90
2018-04-24T03:45:01.975Z,99.90
2018-04-24T03:47:29.481Z,99.90
2018-04-24T03:49:57.042Z,99.90
2018-04-24T03:52:24.552Z,99.90
2018-04-24T03:54:52.053Z,99.90
2018-04-24T03:57:19.596Z,99.90
2018-04-24T03:59:47.089Z,99.90
2018-04-24T04:02:14.605Z,99.90
2018-04-24T04:04:42.116Z,99.90
2018-04-24T04:07:09.642Z,99.90
2018-04-24T04:09:37.135Z,99.90
2018-04-24T04:12:05.472Z,99.90
2018-04-24T04:14:33.062Z,99.90
2018-04-24T04:17:00.657Z,99.90
2018-04-24T04:19:40.307Z,99.90
2018-04-24T04:22:20.670Z,99.90
2018-04-24T04:24:49.089Z,99.90
2018-04-24T04:27:16.860Z,99.90
2018-04-24T04:29:45.422Z,99.90
2018-04-24T04:32:12.962Z,99.90
2018-04-24T04:34:40.519Z,99.90
2018-04-24T04:37:08.013Z,99.90
2018-04-24T04:39:35.563Z,99.90
2018-04-24T04:42:03.085Z,99.90
2018-04-24T04:44:30.679Z,99.90
2018-04-24T04:46:58.208Z,99.90
2018-04-24T04:49:27.079Z,99.90
2018-04-24T04:51:54.605Z,99.90
2018-04-24T04:54:22.106Z,99.90
2018-04-24T04:56:49.597Z,99.90
2018-04-24T04:59:17.188Z,99.90
2018-04-24T05:01:44.718Z,99.90
2018-04-24T05:04:12.826Z,99.90
2018-04-24T05:06:40.570Z,99.90
2018-04-24T05:09:08.102Z,99.90
2018-04-24T05:11:35.609Z,99.90
2018-04-24T05:14:04.176Z,99.90
2018-04-24T05:16:33.519Z,99.90
2018-04-24T05:19:01.243Z,99.90
2018-04-24T05:21:29.505Z,99.90
2018-04-24T05:24:00.511Z,99.90
2018-04-24T05:26:28.907Z,99.90
2018-04-24T05:28:56.383Z,99.90
2018-04-24T05:31:24.084Z,99.90
2018-04-24T05:33:53.027Z,99.90
2018-04-24T05:36:21.455Z,99.90
2018-04-24T05:38:49.025Z,99.90
2018-04-24T05:41:17.431Z,99.90
2018-04-24T05:43:45.732Z,99.90
2018-04-24T05:46:14.493Z,99.90
2018-04-24T05:48:42.142Z,99.90
2018-04-24T05:51:09.684Z,99.90
2018-04-24T05:53:37.223Z,99.90
2018-04-24T05:56:05.575Z,99.90
2018-04-24T05:58:33.163Z,99.90
2018-04-24T06:01:00.732Z,99.90
2018-04-24T06:03:28.271Z,99.90
2018-04-24T06:05:55.896Z,99.90
2018-04-24T06:08:23.559Z,99.90
2018-04-24T06:10:51.046Z,99.90
2018-04-24T06:13:18.592Z,99.90
2018-04-24T06:15:46.887Z,99.90
2018-04-24T06:18:14.395Z,99.90
2018-04-24T06:20:41.892Z,99.90
2018-04-24T06:23:09.435Z,99.90
2018-04-24T06:25:37.095Z,99.90
2018-04-24T06:28:04.669Z,99.90
2018-04-24T06:30:33.007Z,99.90
2018-04-24T06:33:00.737Z,99.90
2018-04-24T06:35:28.297Z,99.90
2018-04-24T06:37:56.153Z,99.90
2018-04-24T06:40:23.765Z,99.90
2018-04-24T06:42:51.310Z,99.90
2018-04-24T06:45:18.911Z,99.90
2018-04-24T06:47:47.362Z,99.90
2018-04-24T06:50:14.887Z,99.90
2018-04-24T06:52:42.409Z,99.90
2018-04-24T06:55:09.957Z,99.90
2018-04-24T06:57:37.461Z,99.90
2018-04-24T07:00:05.760Z,99.90
2018-04-24T07:02:33.288Z,99.90
2018-04-24T07:05:01.554Z,99.90
2018-04-24T07:07:29.876Z,99.90
2018-04-24T07:09:57.406Z,99.90
2018-04-24T07:12:25.708Z,99.90
2018-04-24T07:14:53.247Z,99.90
2018-04-24T07:17:21.548Z,99.90
2018-04-24T07:19:49.104Z,99.90
2018-04-24T07:22:16.713Z,99.90
2018-04-24T07:24:44.215Z,99.90
2018-04-24T07:27:11.804Z,99.90
2018-04-24T07:29:39.258Z,99.90
2018-04-24T07:32:06.815Z,99.90
2018-04-24T07:34:34.361Z,99.90
2018-04-24T07:37:01.883Z,99.90
2018-04-24T07:39:29.417Z,99.90
2018-04-24T07:41:57.083Z,99.90
2018-04-24T07:44:24.619Z,99.90
2018-04-24T07:46:52.197Z,99.90
2018-04-24T07:49:19.678Z,99.90
2018-04-24T07:51:47.298Z,99.90
2018-04-24T07:54:14.801Z,99.90
2018-04-24T07:56:42.330Z,99.90
2018-04-24T07:59:09.834Z,99.90
2018-04-24T08:01:37.386Z,99.90
2018-04-24T08:04:05.679Z,99.90
2018-04-24T08:06:34.077Z,99.90
2018-04-24T08:09:01.683Z,99.90
2018-04-24T08:11:29.306Z,99.90
2018-04-24T08:13:56.823Z,99.90
2018-04-24T08:16:24.367Z,99.90
2018-04-24T08:18:51.933Z,99.90
2018-04-24T08:21:19.484Z,99.90
2018-04-24T08:23:47.058Z,99.90
2018-04-24T08:26:14.661Z,99.90
2018-04-24T08:28:42.167Z,99.90
2018-04-24T08:31:09.822Z,99.90
2018-04-24T08:33:37.414Z,99.90
2018-04-24T08:36:05.808Z,99.90
2018-04-24T08:38:34.140Z,99.90
2018-04-24T08:41:01.749Z,99.90
2018-04-24T08:43:30.040Z,99.90
2018-04-24T08:45:57.568Z,99.90
2018-04-24T08:48:25.919Z,99.90
2018-04-24T08:50:53.462Z,99.90
2018-04-24T08:53:21.026Z,99.90
2018-04-24T08:55:48.615Z,99.90
2018-04-24T08:58:16.143Z,99.90
2018-04-24T09:00:43.747Z,99.90
2018-04-24T09:03:11.353Z,99.90
2018-04-24T09:05:38.910Z,99.90
2018-04-24T09:08:06.531Z,99.90
2018-04-24T09:10:34.098Z,99.90
2018-04-24T09:13:01.651Z,99.90
2018-04-24T09:15:29.216Z,99.90
2018-04-24T09:17:56.995Z,99.90
2018-04-24T09:20:25.345Z,99.90
2018-04-24T09:22:52.890Z,99.90
2018-04-24T09:25:20.483Z,99.90
2018-04-24T09:27:48.796Z,99.90
2018-04-24T09:30:16.355Z,99.90
2018-04-24T09:32:43.907Z,99.90
2018-04-24T09:38:05.425Z,99.90
2018-04-24T09:40:32.967Z,99.90
2018-04-24T09:43:00.499Z,99.90
2018-04-24T09:45:28.048Z,99.90
2018-04-24T09:47:55.631Z,99.90
2018-04-24T09:50:23.190Z,99.90
2018-04-24T09:52:50.709Z,99.90
2018-04-24T09:55:18.261Z,99.90
2018-04-24T09:57:46.566Z,99.90
2018-04-24T10:00:14.112Z,99.90
2018-04-24T10:02:42.426Z,99.90
2018-04-24T10:05:09.985Z,99.90
2018-04-24T10:07:37.537Z,99.90
2018-04-24T10:10:05.865Z,99.90
2018-04-24T10:12:33.411Z,99.90
2018-04-24T10:15:01.026Z,99.90
2018-04-24T10:17:28.550Z,99.90
2018-04-24T10:19:56.089Z,99.90
2018-04-24T10:22:23.662Z,99.90
2018-04-24T10:24:51.222Z,99.90
2018-04-24T10:27:18.781Z,99.90
2018-04-24T10:29:46.346Z,99.90
2018-04-24T10:32:13.916Z,99.90
2018-04-24T10:34:41.492Z,99.90
2018-04-24T10:37:09.035Z,99.90
2018-04-24T10:39:37.418Z,99.90
2018-04-24T10:42:04.995Z,99.90
2018-04-24T10:44:32.557Z,99.90
2018-04-24T10:47:00.150Z,99.90
2018-04-24T10:49:27.734Z,99.90
2018-04-24T10:51:55.281Z,99.90
2018-04-24T10:54:22.850Z,99.90
2018-04-24T10:56:50.379Z,99.90
2018-04-24T10:59:18.052Z,99.90
2018-04-24T11:01:45.515Z,99.90
2018-04-24T11:04:13.047Z,99.90
2018-04-24T11:06:41.361Z,99.90
2018-04-24T11:09:09.147Z,99.90
2018-04-24T11:11:38.856Z,99.90
2018-04-24T11:14:07.479Z,99.90
2018-04-24T11:16:35.037Z,99.90
2018-04-24T11:19:02.638Z,99.90
2018-04-24T11:21:30.296Z,99.90
2018-04-24T11:23:58.016Z,99.90
2018-04-24T11:26:25.635Z,99.90
2018-04-24T11:28:53.359Z,99.90
2018-04-24T11:31:20.979Z,99.90
2018-04-24T11:33:48.675Z,99.90
2018-04-24T11:36:16.287Z,99.90
2018-04-24T11:38:44.045Z,99.90
2018-04-24T11:41:11.683Z,99.90
2018-04-24T11:43:39.226Z,99.90
2018-04-24T11:46:07.567Z,99.90
2018-04-24T11:48:35.190Z,99.90
2018-04-24T11:51:02.715Z,99.90
2018-04-24T11:53:31.919Z,99.90
2018-04-24T11:55:59.492Z,99.90
2018-04-24T11:58:27.210Z,99.90
2018-04-24T12:00:54.729Z,99.90
2018-04-24T12:03:22.282Z,99.90
2018-04-24T12:05:50.539Z,99.90
2018-04-24T12:08:18.072Z,99.90
2018-04-24T12:10:45.567Z,99.90
2018-04-24T12:13:13.848Z,99.90
2018-04-24T12:15:42.177Z,99.90
2018-04-24T12:18:10.419Z,99.90
2018-04-24T12:20:37.931Z,99.90
2018-04-24T12:23:05.455Z,99.90
2018-04-24T12:25:32.966Z,99.90
2018-04-24T12:28:00.473Z,99.90
2018-04-24T12:30:28.003Z,99.90
2018-04-24T12:32:56.285Z,99.90
2018-04-24T12:35:23.794Z,99.90
2018-04-24T12:37:51.323Z,99.90
2018-04-24T12:40:18.814Z,99.90
2018-04-24T12:42:46.332Z,99.90
2018-04-24T12:45:13.884Z,99.90
2018-04-24T12:47:41.355Z,99.90
2018-04-24T12:50:08.851Z,99.90
2018-04-24T12:52:36.372Z,99.90
2018-04-24T12:55:03.942Z,99.90
2018-04-24T12:57:31.476Z,99.90
2018-04-24T12:59:58.996Z,99.90
2018-04-24T13:02:26.519Z,99.90
2018-04-24T13:04:54.074Z,99.90
2018-04-24T13:07:21.593Z,99.90
2018-04-24T13:09:49.129Z,99.90
2018-04-24T13:12:16.621Z,99.90
2018-04-24T13:14:44.886Z,98.30
2018-04-24T13:17:12.480Z,98.10
2018-04-24T13:19:43.433Z,97.00
2018-04-24T13:22:11.000Z,96.30
2018-04-24T13:24:38.537Z,95.50
2018-04-24T13:27:06.883Z,97.00
2018-04-24T13:29:34.429Z,96.90
2018-04-24T13:32:01.956Z,98.70
2018-04-24T13:34:29.496Z,99.30
2018-04-24T13:36:57.036Z,98.00
2018-04-24T13:39:25.354Z,98.70
2018-04-24T13:41:52.880Z,98.60
2018-04-24T13:44:20.438Z,96.00
2018-04-24T13:46:48.772Z,95.30
2018-04-24T13:49:16.331Z,95.30
2018-04-24T13:51:43.850Z,96.10
2018-04-24T13:54:11.412Z,96.40
2018-04-24T13:56:39.719Z,96.60
2018-04-24T13:59:07.280Z,96.70
2018-04-24T14:01:34.823Z,95.00
2018-04-24T14:04:02.380Z,93.90
2018-04-24T14:06:29.948Z,94.70
2018-04-24T14:08:57.499Z,94.60
2018-04-24T14:11:25.800Z,95.10
2018-04-24T14:13:53.345Z,95.00
2018-04-24T14:16:20.860Z,95.00
2018-04-24T14:18:48.418Z,94.50
2018-04-24T14:21:15.991Z,93.30
2018-04-24T14:23:43.541Z,94.00
2018-04-24T14:26:11.875Z,92.90
2018-04-24T14:28:39.433Z,92.80
2018-04-24T14:31:06.966Z,92.50
2018-04-24T14:33:35.340Z,94.60
2018-04-24T14:36:03.708Z,94.90
2018-04-24T14:38:32.065Z,95.10
2018-04-24T14:40:59.664Z,94.90
2018-04-24T14:43:27.295Z,95.20
2018-04-24T14:45:54.815Z,94.40
2018-04-24T14:48:22.369Z,93.40
2018-04-24T14:50:49.912Z,93.70
2018-04-24T14:53:18.248Z,94.40
2018-04-24T14:55:45.809Z,94.30
2018-04-24T14:58:13.356Z,94.10
2018-04-24T15:00:40.901Z,94.60
2018-04-24T15:03:08.453Z,94.40
2018-04-24T15:05:36.096Z,96.00
2018-04-24T15:08:03.943Z,95.30
2018-04-24T15:10:31.460Z,94.10
2018-04-24T15:12:59.029Z,93.40
2018-04-24T15:15:26.728Z,93.70
2018-04-24T15:17:55.039Z,95.90
2018-04-24T15:20:22.603Z,95.90
2018-04-24T15:22:50.180Z,94.90
2018-04-24T15:25:17.857Z,95.60
2018-04-24T15:27:45.396Z,95.50
2018-04-24T15:30:12.896Z,95.30
2018-04-24T15:32:40.415Z,94.60
2018-04-24T15:35:07.944Z,95.70
2018-04-24T15:37:35.471Z,94.30
2018-04-24T15:40:02.979Z,95.20
2018-04-24T15:42:30.507Z,95.20
2018-04-24T15:44:58.019Z,94.60
2018-04-24T15:47:25.539Z,94.40
2018-04-24T15:49:53.810Z,96.30
2018-04-24T15:52:21.330Z,96.10
2018-04-24T15:54:49.920Z,95.70
2018-04-24T15:57:18.143Z,95.90
2018-04-24T15:59:46.424Z,97.00
2018-04-24T16:02:13.953Z,96.90
2018-04-24T16:04:41.486Z,95.90
2018-04-24T16:07:09.019Z,96.60
2018-04-24T16:09:37.592Z,96.70
2018-04-24T16:12:06.000Z,96.70
2018-04-24T16:14:33.641Z,96.40
2018-04-24T16:17:01.457Z,96.20
2018-04-24T16:19:29.337Z,96.10
2018-04-24T16:21:56.971Z,96.60
2018-04-24T16:24:24.555Z,96.30
2018-04-24T16:26:52.934Z,96.40
2018-04-24T16:29:20.771Z,96.40
2018-04-24T16:31:48.534Z,96.70
2018-04-24T16:34:16.465Z,96.70
2018-04-24T16:36:44.102Z,97.60
2018-04-24T16:39:12.401Z,97.20
2018-04-24T16:41:40.690Z,97.30
2018-04-24T16:44:08.202Z,97.20
2018-04-24T16:46:35.846Z,96.30
2018-04-24T16:49:03.342Z,97.50
2018-04-24T16:51:30.987Z,98.00
2018-04-24T16:53:58.508Z,97.70
2018-04-24T16:56:26.046Z,98.20
2018-04-24T16:58:54.324Z,98.00
2018-04-24T17:01:22.639Z,98.50
2018-04-24T17:03:50.146Z,98.50
2018-04-24T17:06:18.506Z,99.00
2018-04-24T17:08:46.011Z,98.90
2018-04-24T17:11:13.566Z,98.40
2018-04-24T17:13:41.071Z,99.50
2018-04-24T17:16:09.362Z,99.90
2018-04-24T17:18:37.112Z,98.90
2018-04-24T17:21:04.673Z,99.90
2018-04-24T17:23:32.200Z,99.80
2018-04-24T17:25:59.725Z,99.50
2018-04-24T17:28:28.049Z,99.90
2018-04-24T17:30:55.737Z,99.90
2018-04-24T17:33:23.302Z,99.90
2018-04-24T17:35:50.906Z,99.90
2018-04-24T17:38:18.818Z,99.70
2018-04-24T17:40:46.556Z,99.90
2018-04-24T17:43:14.301Z,99.90
2018-04-24T17:45:42.048Z,99.90
2018-04-24T17:48:13.008Z,99.90
2018-04-24T17:50:40.772Z,99.90
2018-04-24T17:53:08.688Z,99.90
2018-04-24T17:55:37.272Z,99.90
2018-04-24T17:58:06.367Z,99.90
2018-04-24T18:00:34.377Z,99.90
2018-04-24T18:03:02.326Z,99.90
2018-04-24T18:05:30.897Z,99.90
2018-04-24T18:07:58.588Z,99.90
2018-04-24T18:10:26.941Z,99.90
2018-04-24T18:12:55.480Z,99.90
2018-04-24T18:15:23.230Z,99.90
2018-04-24T18:17:51.026Z,99.90
2018-04-24T18:20:18.730Z,99.90
2018-04-24T18:22:46.461Z,99.90
2018-04-24T18:25:14.191Z,99.90
2018-04-24T18:27:41.979Z,99.90
2018-04-24T18:30:09.904Z,99.90
2018-04-24T18:32:38.423Z,99.90
2018-04-24T18:35:06.044Z,99.90
2018-04-24T18:37:33.820Z,99.90
2018-04-24T18:40:02.431Z,99.90
2018-04-24T18:42:30.115Z,99.90
2018-04-24T18:44:57.896Z,99.90
2018-04-24T18:47:25.851Z,99.90
2018-04-24T18:49:53.615Z,99.90
2018-04-24T18:52:21.350Z,99.90
2018-04-24T18:54:49.183Z,99.90
2018-04-24T18:57:17.932Z,99.90
2018-04-24T18:59:46.511Z,99.90
2018-04-24T19:02:14.181Z,99.90
2018-04-24T19:04:41.883Z,99.90
2018-04-24T19:07:10.364Z,99.90
2018-04-24T19:09:38.151Z,99.90
2018-04-24T19:12:05.912Z,99.90
2018-04-24T19:14:33.893Z,99.90
2018-04-24T19:17:03.169Z,99.90
2018-04-24T19:19:30.747Z,99.90
2018-04-24T19:21:58.623Z,99.90
2018-04-24T19:24:33.632Z,99.90
2018-04-24T19:27:01.314Z,99.90
2018-04-24T19:29:29.683Z,99.90
2018-04-24T19:32:02.923Z,99.90
2018-04-24T19:34:30.508Z,99.90
2018-04-24T19:36:58.048Z,99.90
2018-04-24T19:39:31.378Z,99.90
2018-04-24T19:41:58.911Z,99.90
2018-04-24T19:44:27.216Z,99.90
2018-04-24T19:46:54.886Z,99.90
2018-04-24T19:49:28.259Z,99.90
2018-04-24T19:51:55.776Z,99.90
2018-04-24T19:54:24.071Z,99.90
2018-04-24T19:56:51.655Z,99.90
2018-04-24T19:59:19.153Z,99.90
2018-04-24T20:01:46.716Z,99.90
2018-04-24T20:04:14.257Z,99.90
2018-04-24T20:06:41.779Z,99.90
2018-04-24T20:09:09.316Z,99.90
2018-04-24T20:11:37.624Z,99.90
2018-04-24T20:14:06.029Z,99.90
2018-04-24T20:16:33.600Z,99.90
2018-04-24T20:19:01.151Z,99.90
2018-04-24T20:21:28.671Z,99.90
2018-04-24T20:23:56.281Z,99.90
2018-04-24T20:26:23.776Z,99.90
2018-04-24T20:28:52.166Z,99.90
2018-04-24T20:31:19.730Z,99.90
2018-04-24T20:33:47.287Z,99.90
2018-04-24T20:36:14.862Z,99.90
2018-04-24T20:38:42.493Z,99.90
2018-04-24T20:41:15.264Z,99.90
2018-04-24T20:43:42.824Z,99.90
2018-04-24T20:46:11.215Z,99.90
2018-04-24T20:48:39.733Z,99.90
2018-04-24T20:51:07.311Z,99.90
2018-04-24T20:53:34.889Z,99.90
2018-04-24T20:56:02.446Z,99.90
2018-04-24T20:58:30.068Z,99.90
2018-04-24T21:00:58.409Z,99.90
2018-04-24T21:03:25.928Z,99.90
2018-04-24T21:05:53.471Z,99.90
2018-04-24T21:08:21.033Z,99.90
2018-04-24T21:10:48.585Z,99.90
2018-04-24T21:13:16.262Z,99.90
2018-04-24T21:15:43.760Z,99.90
2018-04-24T21:18:11.353Z,99.90
2018-04-24T21:20:39.686Z,99.90
2018-04-24T21:23:07.283Z,99.90
2018-04-24T21:25:34.833Z,99.90
2018-04-24T21:28:02.408Z,99.90
2018-04-24T21:30:30.728Z,99.90
2018-04-24T21:32:58.291Z,99.90
2018-04-24T21:35:25.893Z,99.90
2018-04-24T21:37:53.477Z,99.90
2018-04-24T21:40:21.801Z,99.90
2018-04-24T21:42:50.043Z,99.90
2018-04-24T21:45:17.607Z,99.90
2018-04-24T21:47:45.169Z,99.90
2018-04-24T21:50:12.744Z,99.90
2018-04-24T21:52:40.304Z,99.90
2018-04-24T21:55:07.865Z,99.90
2018-04-24T21:57:35.391Z,99.90
2018-04-24T22:00:03.781Z,99.90
2018-04-24T22:02:32.123Z,99.90
2018-04-24T22:04:59.662Z,99.90
2018-04-24T22:07:27.249Z,99.90
2018-04-24T22:09:54.799Z,99.90
2018-04-24T22:12:22.331Z,99.90
2018-04-24T22:14:49.879Z,99.90
2018-04-24T22:17:17.412Z,99.90
2018-04-24T22:19:45.727Z,99.90
2018-04-24T22:22:14.025Z,99.90
2018-04-24T22:24:41.579Z,99.90
2018-04-24T22:27:09.106Z,99.90
2018-04-24T22:29:36.620Z,99.90
2018-04-24T22:32:04.935Z,99.90
2018-04-24T22:34:33.222Z,99.90
2018-04-24T22:37:01.501Z,99.90
2018-04-24T22:39:29.110Z,99.90
2018-04-24T22:41:56.665Z,99.90
2018-04-24T22:44:24.240Z,99.90
2018-04-24T22:46:51.757Z,99.90
2018-04-24T22:49:19.309Z,99.90
2018-04-24T22:51:46.819Z,99.90
2018-04-24T22:54:14.334Z,99.90
2018-04-24T22:56:41.841Z,99.90
2018-04-24T22:59:09.351Z,99.90
2018-04-24T23:01:36.899Z,99.90
2018-04-24T23:04:04.422Z,99.90
2018-04-24T23:06:31.979Z,99.90
2018-04-24T23:08:59.508Z,99.90
2018-04-24T23:11:38.782Z,99.90
2018-04-24T23:14:18.186Z,99.90
2018-04-24T23:16:57.550Z,99.90
2018-04-24T23:19:36.776Z,99.90
2018-04-24T23:22:03.864Z,99.90
2018-04-24T23:24:32.372Z,99.90
2018-04-24T23:26:59.978Z,99.90
2018-04-24T23:29:27.526Z,99.90
2018-04-24T23:31:55.053Z,99.90
2018-04-24T23:34:22.574Z,99.90
2018-04-24T23:36:50.855Z,99.90
2018-04-24T23:39:19.173Z,99.90
2018-04-24T23:41:46.669Z,99.90
2018-04-24T23:44:14.200Z,99.90
2018-04-24T23:46:41.733Z,99.90
2018-04-24T23:49:09.254Z,99.90
2018-04-24T23:51:36.787Z,99.90
2018-04-24T23:54:04.314Z,99.90
2018-04-24T23:56:31.870Z,99.90
2018-04-24T23:58:59.396Z,99.90
